sensor_id;sensor_type;location;lat;lon;timestamp;temperature;humidity
68139;DHT22;54940;50.842;4.410;2023-11-19T00:00:31;13.90;99.90
68139;DHT22;54940;50.842;4.410;2023-11-19T00:02:56;13.90;99.90
68139;DHT22;54940;50.842;4.410;2023-11-19T00:05:22;13.90;99.90
68139;DHT22;54940;50.842;4.410;2023-11-19T00:07:47;13.90;99.90
68139;DHT22;54940;50.842;4.410;2023-11-19T00:10:15;13.90;99.90
68139;DHT22;54940;50.842;4.410;2023-11-19T00:12:45;13.90;99.90
68139;DHT22;54940;50.842;4.410;2023-11-19T00:15:15;13.90;99.90
68139;DHT22;54940;50.842;4.410;2023-11-19T00:17:42;13.90;99.90
68139;DHT22;54940;50.842;4.410;2023-11-19T00:20:11;13.90;99.90
68139;DHT22;54940;50.842;4.410;2023-11-19T00:22:40;13.90;99.90
68139;DHT22;54940;50.842;4.410;2023-11-19T00:25:07;13.90;99.90
68139;DHT22;54940;50.842;4.410;2023-11-19T00:27:33;14.00;99.90
68139;DHT22;54940;50.842;4.410;2023-11-19T00:29:59;13.90;99.90
68139;DHT22;54940;50.842;4.410;2023-11-19T00:32:24;13.90;99.90
68139;DHT22;54940;50.842;4.410;2023-11-19T00:34:51;13.90;99.90
68139;DHT22;54940;50.842;4.410;2023-11-19T00:37:17;13.90;99.90
68139;DHT22;54940;50.842;4.410;2023-11-19T00:39:43;13.90;99.90
68139;DHT22;54940;50.842;4.410;2023-11-19T00:42:09;13.80;99.90
68139;DHT22;54940;50.842;4.410;2023-11-19T00:44:38;13.90;99.90
68139;DHT22;54940;50.842;4.410;2023-11-19T00:47:03;13.80;99.90
68139;DHT22;54940;50.842;4.410;2023-11-19T00:49:30;13.90;99.90
68139;DHT22;54940;50.842;4.410;2023-11-19T00:51:58;14.00;99.90
68139;DHT22;54940;50.842;4.410;2023-11-19T00:54:24;13.90;99.90
68139;DHT22;54940;50.842;4.410;2023-11-19T00:56:52;14.00;99.90
68139;DHT22;54940;50.842;4.410;2023-11-19T00:59:18;13.90;99.90
68139;DHT22;54940;50.842;4.410;2023-11-19T01:01:43;13.90;99.90
68139;DHT22;54940;50.842;4.410;2023-11-19T01:04:12;13.90;99.90
68139;DHT22;54940;50.842;4.410;2023-11-19T01:06:37;13.90;99.90
68139;DHT22;54940;50.842;4.410;2023-11-19T01:09:03;13.90;99.90
68139;DHT22;54940;50.842;4.410;2023-11-19T01:11:28;14.00;99.90
68139;DHT22;54940;50.842;4.410;2023-11-19T01:13:54;14.00;99.90
68139;DHT22;54940;50.842;4.410;2023-11-19T01:16:20;14.00;99.90
68139;DHT22;54940;50.842;4.410;2023-11-19T01:18:49;13.90;99.90
68139;DHT22;54940;50.842;4.410;2023-11-19T01:21:15;14.00;99.90
68139;DHT22;54940;50.842;4.410;2023-11-19T01:23:42;14.00;99.90
68139;DHT22;54940;50.842;4.410;2023-11-19T01:26:11;13.90;99.90
68139;DHT22;54940;50.842;4.410;2023-11-19T01:28:38;14.00;99.90
68139;DHT22;54940;50.842;4.410;2023-11-19T01:31:11;14.00;99.90
68139;DHT22;54940;50.842;4.410;2023-11-19T01:33:37;13.90;99.90
68139;DHT22;54940;50.842;4.410;2023-11-19T01:36:03;13.90;99.90
68139;DHT22;54940;50.842;4.410;2023-11-19T01:38:29;13.90;99.90
68139;DHT22;54940;50.842;4.410;2023-11-19T01:40:56;13.90;99.90
68139;DHT22;54940;50.842;4.410;2023-11-19T01:43:37;13.90;99.90
68139;DHT22;54940;50.842;4.410;2023-11-19T01:46:05;14.00;99.90
68139;DHT22;54940;50.842;4.410;2023-11-19T01:48:32;13.90;99.90
68139;DHT22;54940;50.842;4.410;2023-11-19T01:50:59;13.80;99.90
68139;DHT22;54940;50.842;4.410;2023-11-19T01:53:25;13.90;99.90
68139;DHT22;54940;50.842;4.410;2023-11-19T01:55:54;13.80;99.90
68139;DHT22;54940;50.842;4.410;2023-11-19T01:58:20;13.80;99.90
68139;DHT22;54940;50.842;4.410;2023-11-19T02:00:46;13.80;99.90
68139;DHT22;54940;50.842;4.410;2023-11-19T02:03:12;13.80;99.90
68139;DHT22;54940;50.842;4.410;2023-11-19T02:05:38;13.80;99.90
68139;DHT22;54940;50.842;4.410;2023-11-19T02:08:05;13.80;99.90
68139;DHT22;54940;50.842;4.410;2023-11-19T02:10:30;13.80;99.90
68139;DHT22;54940;50.842;4.410;2023-11-19T02:12:58;13.80;99.90
68139;DHT22;54940;50.842;4.410;2023-11-19T02:15:23;13.80;99.90
68139;DHT22;54940;50.842;4.410;2023-11-19T02:17:57;13.80;99.90
68139;DHT22;54940;50.842;4.410;2023-11-19T02:20:22;13.70;99.90
68139;DHT22;54940;50.842;4.410;2023-11-19T02:22:50;13.60;99.90
68139;DHT22;54940;50.842;4.410;2023-11-19T02:25:30;13.60;99.90
68139;DHT22;54940;50.842;4.410;2023-11-19T02:28:02;13.60;99.90
68139;DHT22;54940;50.842;4.410;2023-11-19T02:30:28;13.60;99.90
68139;DHT22;54940;50.842;4.410;2023-11-19T02:32:58;13.60;99.90
68139;DHT22;54940;50.842;4.410;2023-11-19T02:35:26;13.60;99.90
68139;DHT22;54940;50.842;4.410;2023-11-19T02:37:52;13.60;99.90
68139;DHT22;54940;50.842;4.410;2023-11-19T02:40:17;13.50;99.90
68139;DHT22;54940;50.842;4.410;2023-11-19T02:42:44;13.60;99.90
68139;DHT22;54940;50.842;4.410;2023-11-19T02:45:10;13.40;99.90
68139;DHT22;54940;50.842;4.410;2023-11-19T02:47:40;13.40;99.90
68139;DHT22;54940;50.842;4.410;2023-11-19T02:50:08;13.50;99.90
68139;DHT22;54940;50.842;4.410;2023-11-19T02:52:44;13.50;99.90
68139;DHT22;54940;50.842;4.410;2023-11-19T02:55:11;13.60;99.90
68139;DHT22;54940;50.842;4.410;2023-11-19T02:57:43;13.50;99.90
68139;DHT22;54940;50.842;4.410;2023-11-19T03:00:15;13.50;99.90
68139;DHT22;54940;50.842;4.410;2023-11-19T03:02:41;13.50;99.90
68139;DHT22;54940;50.842;4.410;2023-11-19T03:05:12;13.40;99.90
68139;DHT22;54940;50.842;4.410;2023-11-19T03:07:43;13.50;99.90
68139;DHT22;54940;50.842;4.410;2023-11-19T03:10:12;13.40;99.90
68139;DHT22;54940;50.842;4.410;2023-11-19T03:12:41;13.40;99.90
68139;DHT22;54940;50.842;4.410;2023-11-19T03:15:07;13.40;99.90
68139;DHT22;54940;50.842;4.410;2023-11-19T03:17:36;13.30;99.90
68139;DHT22;54940;50.842;4.410;2023-11-19T03:20:04;13.30;99.90
68139;DHT22;54940;50.842;4.410;2023-11-19T03:22:32;13.30;99.90
68139;DHT22;54940;50.842;4.410;2023-11-19T03:24:59;13.30;99.90
68139;DHT22;54940;50.842;4.410;2023-11-19T03:27:25;13.20;99.90
68139;DHT22;54940;50.842;4.410;2023-11-19T03:29:51;13.20;99.90
68139;DHT22;54940;50.842;4.410;2023-11-19T03:32:16;13.20;99.90
68139;DHT22;54940;50.842;4.410;2023-11-19T03:34:42;13.10;99.90
68139;DHT22;54940;50.842;4.410;2023-11-19T03:37:10;13.10;99.90
68139;DHT22;54940;50.842;4.410;2023-11-19T03:39:36;13.10;99.90
68139;DHT22;54940;50.842;4.410;2023-11-19T03:42:01;13.10;99.90
68139;DHT22;54940;50.842;4.410;2023-11-19T03:44:28;13.10;99.90
68139;DHT22;54940;50.842;4.410;2023-11-19T03:46:54;13.10;99.90
68139;DHT22;54940;50.842;4.410;2023-11-19T03:49:20;13.10;99.90
68139;DHT22;54940;50.842;4.410;2023-11-19T03:51:45;13.10;99.90
68139;DHT22;54940;50.842;4.410;2023-11-19T03:54:11;13.00;99.90
68139;DHT22;54940;50.842;4.410;2023-11-19T03:56:37;12.90;99.90
68139;DHT22;54940;50.842;4.410;2023-11-19T03:59:03;12.90;99.90
68139;DHT22;54940;50.842;4.410;2023-11-19T04:01:28;12.90;99.90
68139;DHT22;54940;50.842;4.410;2023-11-19T04:03:54;12.80;99.90
68139;DHT22;54940;50.842;4.410;2023-11-19T04:06:24;12.80;99.90
68139;DHT22;54940;50.842;4.410;2023-11-19T04:08:52;12.80;99.90
68139;DHT22;54940;50.842;4.410;2023-11-19T04:11:17;12.80;99.90
68139;DHT22;54940;50.842;4.410;2023-11-19T04:13:43;12.80;99.90
68139;DHT22;54940;50.842;4.410;2023-11-19T04:16:09;12.80;99.90
68139;DHT22;54940;50.842;4.410;2023-11-19T04:18:37;12.90;99.90
68139;DHT22;54940;50.842;4.410;2023-11-19T04:21:06;12.90;99.90
68139;DHT22;54940;50.842;4.410;2023-11-19T04:23:31;12.80;99.90
68139;DHT22;54940;50.842;4.410;2023-11-19T04:25:57;12.90;99.90
68139;DHT22;54940;50.842;4.410;2023-11-19T04:28:23;12.80;99.90
68139;DHT22;54940;50.842;4.410;2023-11-19T04:30:48;12.70;99.90
68139;DHT22;54940;50.842;4.410;2023-11-19T04:33:14;12.70;99.90
68139;DHT22;54940;50.842;4.410;2023-11-19T04:35:42;12.70;99.90
68139;DHT22;54940;50.842;4.410;2023-11-19T04:38:07;12.80;99.90
68139;DHT22;54940;50.842;4.410;2023-11-19T04:40:33;12.80;99.90
68139;DHT22;54940;50.842;4.410;2023-11-19T04:42:59;12.80;99.90
68139;DHT22;54940;50.842;4.410;2023-11-19T04:45:24;12.80;99.90
68139;DHT22;54940;50.842;4.410;2023-11-19T04:47:50;12.80;99.90
68139;DHT22;54940;50.842;4.410;2023-11-19T04:50:15;12.80;99.90
68139;DHT22;54940;50.842;4.410;2023-11-19T04:52:41;12.70;99.90
68139;DHT22;54940;50.842;4.410;2023-11-19T04:55:10;12.80;99.90
68139;DHT22;54940;50.842;4.410;2023-11-19T04:57:37;12.70;99.90
68139;DHT22;54940;50.842;4.410;2023-11-19T05:00:04;12.70;99.90
68139;DHT22;54940;50.842;4.410;2023-11-19T05:02:30;12.80;99.90
68139;DHT22;54940;50.842;4.410;2023-11-19T05:04:56;12.80;99.90
68139;DHT22;54940;50.842;4.410;2023-11-19T05:07:22;12.80;99.90
68139;DHT22;54940;50.842;4.410;2023-11-19T05:09:50;12.70;99.90
68139;DHT22;54940;50.842;4.410;2023-11-19T05:12:20;12.80;99.90
68139;DHT22;54940;50.842;4.410;2023-11-19T05:14:45;12.80;99.90
68139;DHT22;54940;50.842;4.410;2023-11-19T05:17:15;12.70;99.90
68139;DHT22;54940;50.842;4.410;2023-11-19T05:19:40;12.70;99.90
68139;DHT22;54940;50.842;4.410;2023-11-19T05:22:06;12.60;99.90
68139;DHT22;54940;50.842;4.410;2023-11-19T05:24:33;12.60;99.90
68139;DHT22;54940;50.842;4.410;2023-11-19T05:26:58;12.50;99.90
68139;DHT22;54940;50.842;4.410;2023-11-19T05:29:24;12.60;99.90
68139;DHT22;54940;50.842;4.410;2023-11-19T05:31:50;12.60;99.90
68139;DHT22;54940;50.842;4.410;2023-11-19T05:34:15;12.60;99.90
68139;DHT22;54940;50.842;4.410;2023-11-19T05:36:41;12.50;99.90
68139;DHT22;54940;50.842;4.410;2023-11-19T05:39:07;12.50;99.90
68139;DHT22;54940;50.842;4.410;2023-11-19T05:41:32;12.60;99.90
68139;DHT22;54940;50.842;4.410;2023-11-19T05:43:58;12.60;99.90
68139;DHT22;54940;50.842;4.410;2023-11-19T05:46:23;12.60;99.90
68139;DHT22;54940;50.842;4.410;2023-11-19T05:48:51;12.60;99.90
68139;DHT22;54940;50.842;4.410;2023-11-19T05:51:17;12.50;99.90
68139;DHT22;54940;50.842;4.410;2023-11-19T05:53:43;12.50;99.90
68139;DHT22;54940;50.842;4.410;2023-11-19T05:56:09;12.50;99.90
68139;DHT22;54940;50.842;4.410;2023-11-19T05:58:35;12.50;99.90
68139;DHT22;54940;50.842;4.410;2023-11-19T06:01:01;12.40;99.90
68139;DHT22;54940;50.842;4.410;2023-11-19T06:03:27;12.30;99.90
68139;DHT22;54940;50.842;4.410;2023-11-19T06:05:53;12.30;99.90
68139;DHT22;54940;50.842;4.410;2023-11-19T06:08:20;12.30;99.90
68139;DHT22;54940;50.842;4.410;2023-11-19T06:10:46;12.40;99.90
68139;DHT22;54940;50.842;4.410;2023-11-19T06:13:13;12.30;99.90
68139;DHT22;54940;50.842;4.410;2023-11-19T06:15:41;12.40;99.90
68139;DHT22;54940;50.842;4.410;2023-11-19T06:18:07;12.30;99.90
68139;DHT22;54940;50.842;4.410;2023-11-19T06:20:33;12.30;99.90
68139;DHT22;54940;50.842;4.410;2023-11-19T06:23:01;12.20;99.90
68139;DHT22;54940;50.842;4.410;2023-11-19T06:25:27;12.20;99.90
68139;DHT22;54940;50.842;4.410;2023-11-19T06:27:53;12.10;99.90
68139;DHT22;54940;50.842;4.410;2023-11-19T06:30:19;12.20;99.90
68139;DHT22;54940;50.842;4.410;2023-11-19T06:32:49;12.10;99.90
68139;DHT22;54940;50.842;4.410;2023-11-19T06:35:14;12.20;99.90
68139;DHT22;54940;50.842;4.410;2023-11-19T06:37:40;12.10;99.90
68139;DHT22;54940;50.842;4.410;2023-11-19T06:40:07;12.20;99.90
68139;DHT22;54940;50.842;4.410;2023-11-19T06:42:35;12.20;99.90
68139;DHT22;54940;50.842;4.410;2023-11-19T06:45:01;12.20;99.90
68139;DHT22;54940;50.842;4.410;2023-11-19T06:47:27;12.20;99.90
68139;DHT22;54940;50.842;4.410;2023-11-19T06:49:54;12.00;99.90
68139;DHT22;54940;50.842;4.410;2023-11-19T06:52:20;12.10;99.90
68139;DHT22;54940;50.842;4.410;2023-11-19T06:54:46;12.00;99.90
68139;DHT22;54940;50.842;4.410;2023-11-19T06:57:12;12.00;99.90
68139;DHT22;54940;50.842;4.410;2023-11-19T06:59:38;12.00;99.90
68139;DHT22;54940;50.842;4.410;2023-11-19T07:02:07;11.90;99.90
68139;DHT22;54940;50.842;4.410;2023-11-19T07:04:35;11.90;99.90
68139;DHT22;54940;50.842;4.410;2023-11-19T07:07:00;11.90;99.90
68139;DHT22;54940;50.842;4.410;2023-11-19T07:09:26;11.90;99.90
68139;DHT22;54940;50.842;4.410;2023-11-19T07:11:52;11.90;99.90
68139;DHT22;54940;50.842;4.410;2023-11-19T07:14:18;11.80;99.90
68139;DHT22;54940;50.842;4.410;2023-11-19T07:16:44;11.90;99.90
68139;DHT22;54940;50.842;4.410;2023-11-19T07:19:12;11.80;99.90
68139;DHT22;54940;50.842;4.410;2023-11-19T07:21:41;11.80;99.90
68139;DHT22;54940;50.842;4.410;2023-11-19T07:24:10;11.90;99.90
68139;DHT22;54940;50.842;4.410;2023-11-19T07:26:42;11.90;99.90
68139;DHT22;54940;50.842;4.410;2023-11-19T07:29:07;12.00;99.90
68139;DHT22;54940;50.842;4.410;2023-11-19T07:31:33;12.00;99.90
68139;DHT22;54940;50.842;4.410;2023-11-19T07:33:59;12.00;99.90
68139;DHT22;54940;50.842;4.410;2023-11-19T07:36:24;12.00;99.90
68139;DHT22;54940;50.842;4.410;2023-11-19T07:38:50;12.00;99.90
68139;DHT22;54940;50.842;4.410;2023-11-19T07:41:16;12.00;99.90
68139;DHT22;54940;50.842;4.410;2023-11-19T07:43:43;12.00;99.90
68139;DHT22;54940;50.842;4.410;2023-11-19T07:46:15;12.00;99.90
68139;DHT22;54940;50.842;4.410;2023-11-19T07:48:41;12.00;99.90
68139;DHT22;54940;50.842;4.410;2023-11-19T07:51:08;11.90;99.90
68139;DHT22;54940;50.842;4.410;2023-11-19T07:53:36;12.00;99.90
68139;DHT22;54940;50.842;4.410;2023-11-19T07:56:03;12.00;99.90
68139;DHT22;54940;50.842;4.410;2023-11-19T07:58:29;12.00;99.90
68139;DHT22;54940;50.842;4.410;2023-11-19T08:00:55;11.90;99.90
68139;DHT22;54940;50.842;4.410;2023-11-19T08:03:23;12.00;99.90
68139;DHT22;54940;50.842;4.410;2023-11-19T08:05:49;12.00;99.90
68139;DHT22;54940;50.842;4.410;2023-11-19T08:08:14;12.00;99.90
68139;DHT22;54940;50.842;4.410;2023-11-19T08:10:40;12.00;99.90
68139;DHT22;54940;50.842;4.410;2023-11-19T08:13:06;12.10;99.90
68139;DHT22;54940;50.842;4.410;2023-11-19T08:15:33;12.10;99.90
68139;DHT22;54940;50.842;4.410;2023-11-19T08:17:58;12.00;99.90
68139;DHT22;54940;50.842;4.410;2023-11-19T08:20:24;12.00;99.90
68139;DHT22;54940;50.842;4.410;2023-11-19T08:22:50;12.00;99.90
68139;DHT22;54940;50.842;4.410;2023-11-19T08:25:15;12.10;99.90
68139;DHT22;54940;50.842;4.410;2023-11-19T08:27:41;12.10;99.90
68139;DHT22;54940;50.842;4.410;2023-11-19T08:30:08;12.10;99.90
68139;DHT22;54940;50.842;4.410;2023-11-19T08:32:37;12.20;99.90
68139;DHT22;54940;50.842;4.410;2023-11-19T08:35:02;12.20;99.90
68139;DHT22;54940;50.842;4.410;2023-11-19T08:37:28;12.20;99.90
68139;DHT22;54940;50.842;4.410;2023-11-19T08:39:54;12.30;99.90
68139;DHT22;54940;50.842;4.410;2023-11-19T08:42:19;12.30;99.90
68139;DHT22;54940;50.842;4.410;2023-11-19T08:44:49;12.40;99.90
68139;DHT22;54940;50.842;4.410;2023-11-19T08:47:20;12.40;99.90
68139;DHT22;54940;50.842;4.410;2023-11-19T08:49:46;12.30;99.90
68139;DHT22;54940;50.842;4.410;2023-11-19T08:52:14;12.30;99.90
68139;DHT22;54940;50.842;4.410;2023-11-19T08:54:45;12.20;99.90
68139;DHT22;54940;50.842;4.410;2023-11-19T08:57:10;12.20;99.90
68139;DHT22;54940;50.842;4.410;2023-11-19T08:59:36;12.20;99.90
68139;DHT22;54940;50.842;4.410;2023-11-19T09:02:05;12.20;99.90
68139;DHT22;54940;50.842;4.410;2023-11-19T09:04:30;12.30;99.90
68139;DHT22;54940;50.842;4.410;2023-11-19T09:06:58;12.30;99.90
68139;DHT22;54940;50.842;4.410;2023-11-19T09:09:23;12.30;99.90
68139;DHT22;54940;50.842;4.410;2023-11-19T09:11:49;12.40;99.90
68139;DHT22;54940;50.842;4.410;2023-11-19T09:14:14;12.40;99.90
68139;DHT22;54940;50.842;4.410;2023-11-19T09:16:41;12.40;99.90
68139;DHT22;54940;50.842;4.410;2023-11-19T09:19:06;12.30;99.90
68139;DHT22;54940;50.842;4.410;2023-11-19T09:21:32;12.30;99.90
68139;DHT22;54940;50.842;4.410;2023-11-19T09:24:00;12.30;99.90
68139;DHT22;54940;50.842;4.410;2023-11-19T09:26:25;12.30;99.90
68139;DHT22;54940;50.842;4.410;2023-11-19T09:28:51;12.40;99.90
68139;DHT22;54940;50.842;4.410;2023-11-19T09:31:17;12.40;99.90
68139;DHT22;54940;50.842;4.410;2023-11-19T09:33:43;12.40;99.90
68139;DHT22;54940;50.842;4.410;2023-11-19T09:36:09;12.50;99.90
68139;DHT22;54940;50.842;4.410;2023-11-19T09:38:37;12.40;99.90
68139;DHT22;54940;50.842;4.410;2023-11-19T09:41:07;12.50;99.90
68139;DHT22;54940;50.842;4.410;2023-11-19T09:43:39;12.50;99.90
68139;DHT22;54940;50.842;4.410;2023-11-19T09:46:06;12.50;99.90
68139;DHT22;54940;50.842;4.410;2023-11-19T09:48:35;12.40;99.90
68139;DHT22;54940;50.842;4.410;2023-11-19T09:51:02;12.40;99.90
68139;DHT22;54940;50.842;4.410;2023-11-19T09:53:28;12.50;99.90
68139;DHT22;54940;50.842;4.410;2023-11-19T09:55:55;12.40;99.90
68139;DHT22;54940;50.842;4.410;2023-11-19T09:58:20;12.40;99.90
68139;DHT22;54940;50.842;4.410;2023-11-19T10:00:47;12.50;99.90
68139;DHT22;54940;50.842;4.410;2023-11-19T10:03:13;12.50;99.90
68139;DHT22;54940;50.842;4.410;2023-11-19T10:05:39;12.60;99.90
68139;DHT22;54940;50.842;4.410;2023-11-19T10:08:06;12.50;99.90
68139;DHT22;54940;50.842;4.410;2023-11-19T10:10:32;12.50;99.90
68139;DHT22;54940;50.842;4.410;2023-11-19T10:12:57;12.50;99.90
68139;DHT22;54940;50.842;4.410;2023-11-19T10:15:25;12.50;99.90
68139;DHT22;54940;50.842;4.410;2023-11-19T10:17:55;12.60;99.90
68139;DHT22;54940;50.842;4.410;2023-11-19T10:20:20;12.60;99.90
68139;DHT22;54940;50.842;4.410;2023-11-19T10:22:50;12.60;99.90
68139;DHT22;54940;50.842;4.410;2023-11-19T10:25:27;12.60;99.90
68139;DHT22;54940;50.842;4.410;2023-11-19T10:27:54;12.70;99.90
68139;DHT22;54940;50.842;4.410;2023-11-19T10:30:24;12.90;99.90
68139;DHT22;54940;50.842;4.410;2023-11-19T10:33:10;12.90;99.90
68139;DHT22;54940;50.842;4.410;2023-11-19T10:35:59;13.00;99.90
68139;DHT22;54940;50.842;4.410;2023-11-19T10:38:27;13.00;99.90
68139;DHT22;54940;50.842;4.410;2023-11-19T10:40:56;13.00;99.90
68139;DHT22;54940;50.842;4.410;2023-11-19T10:43:22;13.10;99.90
68139;DHT22;54940;50.842;4.410;2023-11-19T10:45:51;13.10;99.90
68139;DHT22;54940;50.842;4.410;2023-11-19T10:48:18;13.10;99.90
68139;DHT22;54940;50.842;4.410;2023-11-19T10:50:44;13.20;99.90
68139;DHT22;54940;50.842;4.410;2023-11-19T10:53:12;13.10;99.90
68139;DHT22;54940;50.842;4.410;2023-11-19T10:55:47;13.10;99.90
68139;DHT22;54940;50.842;4.410;2023-11-19T10:58:16;13.20;99.90
68139;DHT22;54940;50.842;4.410;2023-11-19T11:00:57;13.20;99.90
68139;DHT22;54940;50.842;4.410;2023-11-19T11:03:26;13.20;99.90
68139;DHT22;54940;50.842;4.410;2023-11-19T11:05:56;13.20;99.90
68139;DHT22;54940;50.842;4.410;2023-11-19T11:08:23;13.10;99.90
68139;DHT22;54940;50.842;4.410;2023-11-19T11:13:18;13.10;99.90
68139;DHT22;54940;50.842;4.410;2023-11-19T11:15:47;13.20;99.90
68139;DHT22;54940;50.842;4.410;2023-11-19T11:18:13;13.20;99.90
68139;DHT22;54940;50.842;4.410;2023-11-19T11:20:40;13.10;99.90
68139;DHT22;54940;50.842;4.410;2023-11-19T11:31:20;13.00;99.90
68139;DHT22;54940;50.842;4.410;2023-11-19T11:34:25;13.00;99.90
68139;DHT22;54940;50.842;4.410;2023-11-19T11:37:21;13.00;99.90
68139;DHT22;54940;50.842;4.410;2023-11-19T11:39:46;13.10;99.90
68139;DHT22;54940;50.842;4.410;2023-11-19T11:47:26;13.10;99.90
68139;DHT22;54940;50.842;4.410;2023-11-19T11:50:13;13.20;99.90
68139;DHT22;54940;50.842;4.410;2023-11-19T11:55:27;13.30;99.90
68139;DHT22;54940;50.842;4.410;2023-11-19T11:57:56;13.30;99.90
68139;DHT22;54940;50.842;4.410;2023-11-19T12:00:48;13.50;99.90
68139;DHT22;54940;50.842;4.410;2023-11-19T12:03:14;13.50;99.90
68139;DHT22;54940;50.842;4.410;2023-11-19T12:05:46;13.60;99.90
68139;DHT22;54940;50.842;4.410;2023-11-19T12:08:13;13.60;99.90
68139;DHT22;54940;50.842;4.410;2023-11-19T12:10:51;13.60;99.90
68139;DHT22;54940;50.842;4.410;2023-11-19T12:13:20;13.60;99.90
68139;DHT22;54940;50.842;4.410;2023-11-19T12:18:33;13.60;99.90
68139;DHT22;54940;50.842;4.410;2023-11-19T12:21:00;13.60;99.90
68139;DHT22;54940;50.842;4.410;2023-11-19T12:23:29;13.40;99.90
68139;DHT22;54940;50.842;4.410;2023-11-19T12:25:54;13.30;99.90
68139;DHT22;54940;50.842;4.410;2023-11-19T12:28:20;13.30;99.90
68139;DHT22;54940;50.842;4.410;2023-11-19T12:30:46;13.20;99.90
68139;DHT22;54940;50.842;4.410;2023-11-19T12:33:15;13.20;99.90
68139;DHT22;54940;50.842;4.410;2023-11-19T12:35:43;13.10;99.90
68139;DHT22;54940;50.842;4.410;2023-11-19T12:38:27;13.00;99.90
68139;DHT22;54940;50.842;4.410;2023-11-19T12:41:06;13.10;99.90
68139;DHT22;54940;50.842;4.410;2023-11-19T12:43:34;12.90;99.90
68139;DHT22;54940;50.842;4.410;2023-11-19T12:46:01;12.90;99.90
68139;DHT22;54940;50.842;4.410;2023-11-19T12:48:27;13.00;99.90
68139;DHT22;54940;50.842;4.410;2023-11-19T12:50:53;13.00;99.90
68139;DHT22;54940;50.842;4.410;2023-11-19T12:53:20;13.10;99.90
68139;DHT22;54940;50.842;4.410;2023-11-19T12:55:46;13.10;99.90
68139;DHT22;54940;50.842;4.410;2023-11-19T12:58:31;13.10;99.90
68139;DHT22;54940;50.842;4.410;2023-11-19T13:01:01;13.10;99.90
68139;DHT22;54940;50.842;4.410;2023-11-19T13:03:34;13.20;99.90
68139;DHT22;54940;50.842;4.410;2023-11-19T13:06:12;13.20;99.90
68139;DHT22;54940;50.842;4.410;2023-11-19T13:08:49;13.20;99.90
68139;DHT22;54940;50.842;4.410;2023-11-19T13:11:32;13.30;99.90
68139;DHT22;54940;50.842;4.410;2023-11-19T13:14:02;13.40;99.90
68139;DHT22;54940;50.842;4.410;2023-11-19T13:16:30;13.40;99.90
68139;DHT22;54940;50.842;4.410;2023-11-19T13:18:58;13.40;99.90
68139;DHT22;54940;50.842;4.410;2023-11-19T13:21:25;13.30;99.90
68139;DHT22;54940;50.842;4.410;2023-11-19T13:23:51;13.40;99.90
68139;DHT22;54940;50.842;4.410;2023-11-19T13:26:17;13.40;99.90
68139;DHT22;54940;50.842;4.410;2023-11-19T13:28:43;13.40;99.90
68139;DHT22;54940;50.842;4.410;2023-11-19T13:31:08;13.30;99.90
68139;DHT22;54940;50.842;4.410;2023-11-19T13:33:35;13.30;99.90
68139;DHT22;54940;50.842;4.410;2023-11-19T13:36:02;13.20;99.90
68139;DHT22;54940;50.842;4.410;2023-11-19T13:38:32;13.20;99.90
68139;DHT22;54940;50.842;4.410;2023-11-19T13:40:58;13.10;99.90
68139;DHT22;54940;50.842;4.410;2023-11-19T13:43:25;13.00;99.90
68139;DHT22;54940;50.842;4.410;2023-11-19T13:45:50;13.00;99.90
68139;DHT22;54940;50.842;4.410;2023-11-19T13:48:18;13.00;99.90
68139;DHT22;54940;50.842;4.410;2023-11-19T13:50:44;13.00;99.90
68139;DHT22;54940;50.842;4.410;2023-11-19T13:53:10;13.00;99.90
68139;DHT22;54940;50.842;4.410;2023-11-19T13:55:36;13.00;99.90
68139;DHT22;54940;50.842;4.410;2023-11-19T13:58:01;13.00;99.90
68139;DHT22;54940;50.842;4.410;2023-11-19T14:00:27;12.90;99.90
68139;DHT22;54940;50.842;4.410;2023-11-19T14:02:55;12.90;99.90
68139;DHT22;54940;50.842;4.410;2023-11-19T14:05:21;12.90;99.90
68139;DHT22;54940;50.842;4.410;2023-11-19T14:07:46;12.90;99.90
68139;DHT22;54940;50.842;4.410;2023-11-19T14:10:15;13.00;99.90
68139;DHT22;54940;50.842;4.410;2023-11-19T14:12:43;13.00;99.90
68139;DHT22;54940;50.842;4.410;2023-11-19T14:15:10;13.00;99.90
68139;DHT22;54940;50.842;4.410;2023-11-19T14:17:37;13.10;99.90
68139;DHT22;54940;50.842;4.410;2023-11-19T14:20:03;13.10;99.90
68139;DHT22;54940;50.842;4.410;2023-11-19T14:22:42;13.00;99.90
68139;DHT22;54940;50.842;4.410;2023-11-19T14:25:08;13.10;99.90
68139;DHT22;54940;50.842;4.410;2023-11-19T14:27:39;13.10;99.90
68139;DHT22;54940;50.842;4.410;2023-11-19T14:30:06;13.10;99.90
68139;DHT22;54940;50.842;4.410;2023-11-19T14:32:33;13.00;99.90
68139;DHT22;54940;50.842;4.410;2023-11-19T14:35:00;12.90;99.90
68139;DHT22;54940;50.842;4.410;2023-11-19T14:37:26;12.80;99.90
68139;DHT22;54940;50.842;4.410;2023-11-19T14:39:51;12.80;99.90
68139;DHT22;54940;50.842;4.410;2023-11-19T14:42:17;12.70;99.90
68139;DHT22;54940;50.842;4.410;2023-11-19T14:44:43;12.70;99.90
68139;DHT22;54940;50.842;4.410;2023-11-19T14:47:09;12.70;99.90
68139;DHT22;54940;50.842;4.410;2023-11-19T14:49:38;12.70;99.90
68139;DHT22;54940;50.842;4.410;2023-11-19T14:52:04;12.70;99.90
68139;DHT22;54940;50.842;4.410;2023-11-19T14:54:30;12.70;99.90
68139;DHT22;54940;50.842;4.410;2023-11-19T14:56:56;12.70;99.90
68139;DHT22;54940;50.842;4.410;2023-11-19T14:59:22;12.70;99.90
68139;DHT22;54940;50.842;4.410;2023-11-19T15:01:47;12.70;99.90
68139;DHT22;54940;50.842;4.410;2023-11-19T15:04:13;12.70;99.90
68139;DHT22;54940;50.842;4.410;2023-11-19T15:06:39;12.70;99.90
68139;DHT22;54940;50.842;4.410;2023-11-19T15:09:07;12.70;99.90
68139;DHT22;54940;50.842;4.410;2023-11-19T15:11:33;12.70;99.90
68139;DHT22;54940;50.842;4.410;2023-11-19T15:13:58;12.70;99.90
68139;DHT22;54940;50.842;4.410;2023-11-19T15:16:25;12.70;99.90
68139;DHT22;54940;50.842;4.410;2023-11-19T15:18:58;12.70;99.90
68139;DHT22;54940;50.842;4.410;2023-11-19T15:21:30;12.70;99.90
68139;DHT22;54940;50.842;4.410;2023-11-19T15:23:56;12.70;99.90
68139;DHT22;54940;50.842;4.410;2023-11-19T15:26:22;12.80;99.90
68139;DHT22;54940;50.842;4.410;2023-11-19T15:28:48;12.70;99.90
68139;DHT22;54940;50.842;4.410;2023-11-19T15:31:13;12.70;99.90
68139;DHT22;54940;50.842;4.410;2023-11-19T15:33:42;12.80;99.90
68139;DHT22;54940;50.842;4.410;2023-11-19T15:36:08;12.80;99.90
68139;DHT22;54940;50.842;4.410;2023-11-19T15:38:34;12.90;99.90
68139;DHT22;54940;50.842;4.410;2023-11-19T15:41:00;12.80;99.90
68139;DHT22;54940;50.842;4.410;2023-11-19T15:43:25;12.90;99.90
68139;DHT22;54940;50.842;4.410;2023-11-19T15:45:51;12.90;99.90
68139;DHT22;54940;50.842;4.410;2023-11-19T15:48:17;12.80;99.90
68139;DHT22;54940;50.842;4.410;2023-11-19T15:50:43;12.80;99.90
68139;DHT22;54940;50.842;4.410;2023-11-19T15:53:10;12.90;99.90